sensor_id;sensor_type;location;lat;lon;timestamp;pressure;altitude;pressure_sealevel;temperature;humidity
60465;BME280;46314;52.392;9.758;2023-12-29T00:00:48;99970.38;;;11.05;72.84
60465;BME280;46314;52.392;9.758;2023-12-29T00:03:14;99964.75;;;10.79;74.25
60465;BME280;46314;52.392;9.758;2023-12-29T00:05:41;99963.59;;;10.71;75.14
60465;BME280;46314;52.392;9.758;2023-12-29T00:08:07;99966.63;;;11.01;73.17
60465;BME280;46314;52.392;9.758;2023-12-29T00:10:34;99977.78;;;11.27;72.38
60465;BME280;46314;52.392;9.758;2023-12-29T00:13:00;99978.59;;;11.19;72.98
60465;BME280;46314;52.392;9.758;2023-12-29T00:15:27;99964.03;;;11.05;73.16
60465;BME280;46314;52.392;9.758;2023-12-29T00:17:55;99971.69;;;11.08;73.23
60465;BME280;46314;52.392;9.758;2023-12-29T00:20:21;99968.16;;;11.25;72.15
60465;BME280;46314;52.392;9.758;2023-12-29T00:23:03;99959.72;;;11.47;70.72
60465;BME280;46314;52.392;9.758;2023-12-29T00:25:29;99957.16;;;11.02;72.66
60465;BME280;46314;52.392;9.758;2023-12-29T00:27:56;99959.56;;;10.95;73.51
60465;BME280;46314;52.392;9.758;2023-12-29T00:30:24;99951.31;;;11.12;73.06
60465;BME280;46314;52.392;9.758;2023-12-29T00:33:13;99953.47;;;11.33;72.53
60465;BME280;46314;52.392;9.758;2023-12-29T00:35:40;99950.84;;;11.28;72.55
60465;BME280;46314;52.392;9.758;2023-12-29T00:38:06;99948.72;;;11.25;72.35
60465;BME280;46314;52.392;9.758;2023-12-29T00:40:33;99949.91;;;10.84;74.31
60465;BME280;46314;52.392;9.758;2023-12-29T00:43:00;99949.78;;;10.97;74.41
60465;BME280;46314;52.392;9.758;2023-12-29T00:45:27;99945.91;;;11.07;74.24
60465;BME280;46314;52.392;9.758;2023-12-29T00:47:54;99930.63;;;11.53;72.57
60465;BME280;46314;52.392;9.758;2023-12-29T00:50:22;99943.72;;;10.87;75.12
60465;BME280;46314;52.392;9.758;2023-12-29T00:52:48;99930.56;;;11.01;74.61
60465;BME280;46314;52.392;9.758;2023-12-29T00:55:15;99943.75;;;10.95;75.27
60465;BME280;46314;52.392;9.758;2023-12-29T00:57:41;99933.69;;;11.17;75.01
60465;BME280;46314;52.392;9.758;2023-12-29T01:00:11;99936.19;;;10.78;76.85
60465;BME280;46314;52.392;9.758;2023-12-29T01:02:38;99921.41;;;11.09;75.45
60465;BME280;46314;52.392;9.758;2023-12-29T01:05:05;99912.16;;;11.23;74.94
60465;BME280;46314;52.392;9.758;2023-12-29T01:07:33;99908.06;;;11.29;74.11
60465;BME280;46314;52.392;9.758;2023-12-29T01:10:00;99911.38;;;10.73;77.21
60465;BME280;46314;52.392;9.758;2023-12-29T01:12:26;99922.69;;;10.86;76.77
60465;BME280;46314;52.392;9.758;2023-12-29T01:14:53;99915.22;;;11.04;75.90
60465;BME280;46314;52.392;9.758;2023-12-29T01:17:19;99919.66;;;11.31;75.15
60465;BME280;46314;52.392;9.758;2023-12-29T01:19:45;99920.34;;;11.54;73.76
60465;BME280;46314;52.392;9.758;2023-12-29T01:22:12;99914.28;;;11.34;74.83
60465;BME280;46314;52.392;9.758;2023-12-29T01:24:40;99921.56;;;11.04;76.94
60465;BME280;46314;52.392;9.758;2023-12-29T01:27:11;99920.25;;;11.02;77.75
60465;BME280;46314;52.392;9.758;2023-12-29T01:29:38;99911.66;;;11.21;76.66
60465;BME280;46314;52.392;9.758;2023-12-29T01:32:06;99912.59;;;11.07;77.54
60465;BME280;46314;52.392;9.758;2023-12-29T01:34:32;99898.59;;;11.21;76.62
60465;BME280;46314;52.392;9.758;2023-12-29T01:36:59;99903.78;;;11.05;76.97
60465;BME280;46314;52.392;9.758;2023-12-29T01:39:26;99909.06;;;11.33;75.91
60465;BME280;46314;52.392;9.758;2023-12-29T01:41:54;99915.34;;;10.98;77.68
60465;BME280;46314;52.392;9.758;2023-12-29T01:44:22;99892.38;;;11.15;77.86
60465;BME280;46314;52.392;9.758;2023-12-29T01:46:50;99914.41;;;11.12;77.53
60465;BME280;46314;52.392;9.758;2023-12-29T01:49:17;99905.25;;;11.11;76.79
60465;BME280;46314;52.392;9.758;2023-12-29T01:51:49;99908.72;;;11.52;75.65
60465;BME280;46314;52.392;9.758;2023-12-29T01:54:16;99891.38;;;11.11;78.95
60465;BME280;46314;52.392;9.758;2023-12-29T01:56:44;99883.38;;;11.01;81.82
60465;BME280;46314;52.392;9.758;2023-12-29T01:59:12;99889.59;;;11.07;82.01
60465;BME280;46314;52.392;9.758;2023-12-29T02:01:50;99889.94;;;11.23;82.25
60465;BME280;46314;52.392;9.758;2023-12-29T02:04:18;99884.88;;;11.25;81.74
60465;BME280;46314;52.392;9.758;2023-12-29T02:06:45;99889.13;;;11.31;81.75
60465;BME280;46314;52.392;9.758;2023-12-29T02:09:11;99890.59;;;11.20;81.25
60465;BME280;46314;52.392;9.758;2023-12-29T02:11:38;99867.69;;;10.96;83.02
60465;BME280;46314;52.392;9.758;2023-12-29T02:14:05;99861.00;;;11.06;82.54
60465;BME280;46314;52.392;9.758;2023-12-29T02:16:38;99862.69;;;11.42;80.24
60465;BME280;46314;52.392;9.758;2023-12-29T02:19:13;99865.22;;;10.86;83.35
60465;BME280;46314;52.392;9.758;2023-12-29T02:21:46;99860.44;;;10.69;84.37
60465;BME280;46314;52.392;9.758;2023-12-29T02:24:12;99837.81;;;10.85;83.57
60465;BME280;46314;52.392;9.758;2023-12-29T02:26:43;99855.13;;;11.16;81.67
60465;BME280;46314;52.392;9.758;2023-12-29T02:29:14;99859.53;;;11.00;82.18
60465;BME280;46314;52.392;9.758;2023-12-29T02:31:44;99847.28;;;10.84;83.07
60465;BME280;46314;52.392;9.758;2023-12-29T02:34:13;99847.78;;;10.94;82.85
60465;BME280;46314;52.392;9.758;2023-12-29T02:36:42;99845.66;;;11.00;82.91
60465;BME280;46314;52.392;9.758;2023-12-29T02:39:09;99845.66;;;11.00;83.09
60465;BME280;46314;52.392;9.758;2023-12-29T02:41:36;99836.88;;;11.33;81.39
60465;BME280;46314;52.392;9.758;2023-12-29T02:44:04;99833.25;;;10.80;84.17
60465;BME280;46314;52.392;9.758;2023-12-29T02:46:31;99844.34;;;10.89;83.92
60465;BME280;46314;52.392;9.758;2023-12-29T02:48:57;99828.38;;;11.29;81.90
60465;BME280;46314;52.392;9.758;2023-12-29T02:51:24;99827.38;;;11.16;81.77
60465;BME280;46314;52.392;9.758;2023-12-29T02:53:51;99834.72;;;11.04;83.31
60465;BME280;46314;52.392;9.758;2023-12-29T02:56:17;99817.13;;;11.08;82.80
60465;BME280;46314;52.392;9.758;2023-12-29T02:58:43;99828.03;;;11.40;81.41
60465;BME280;46314;52.392;9.758;2023-12-29T03:01:11;99833.78;;;11.08;82.69
60465;BME280;46314;52.392;9.758;2023-12-29T03:03:38;99825.06;;;10.75;85.03
60465;BME280;46314;52.392;9.758;2023-12-29T03:06:05;99821.81;;;10.90;85.42
60465;BME280;46314;52.392;9.758;2023-12-29T03:08:31;99828.78;;;10.61;87.36
60465;BME280;46314;52.392;9.758;2023-12-29T03:10:58;99832.06;;;10.72;87.23
60465;BME280;46314;52.392;9.758;2023-12-29T03:13:24;99825.09;;;11.36;83.42
60465;BME280;46314;52.392;9.758;2023-12-29T03:15:51;99823.00;;;11.07;84.69
60465;BME280;46314;52.392;9.758;2023-12-29T03:18:19;99818.75;;;11.18;84.52
60465;BME280;46314;52.392;9.758;2023-12-29T03:20:45;99806.78;;;10.83;85.92
60465;BME280;46314;52.392;9.758;2023-12-29T03:23:12;99799.31;;;11.09;84.74
60465;BME280;46314;52.392;9.758;2023-12-29T03:25:38;99779.69;;;10.79;86.18
60465;BME280;46314;52.392;9.758;2023-12-29T03:28:05;99802.72;;;10.80;85.48
60465;BME280;46314;52.392;9.758;2023-12-29T03:30:31;99782.00;;;10.95;85.91
60465;BME280;46314;52.392;9.758;2023-12-29T03:32:58;99792.28;;;10.94;85.71
60465;BME280;46314;52.392;9.758;2023-12-29T03:35:28;99797.69;;;11.08;84.38
60465;BME280;46314;52.392;9.758;2023-12-29T03:37:55;99792.94;;;11.26;82.35
60465;BME280;46314;52.392;9.758;2023-12-29T03:40:21;99792.91;;;11.61;80.73
60465;BME280;46314;52.392;9.758;2023-12-29T03:45:28;99787.06;;;11.19;82.22
60465;BME280;46314;52.392;9.758;2023-12-29T03:47:55;99798.34;;;11.31;80.89
60465;BME280;46314;52.392;9.758;2023-12-29T03:50:21;99795.88;;;10.95;82.47
60465;BME280;46314;52.392;9.758;2023-12-29T03:52:49;99794.75;;;11.13;80.17
60465;BME280;46314;52.392;9.758;2023-12-29T03:55:15;99775.31;;;11.13;79.92
60465;BME280;46314;52.392;9.758;2023-12-29T03:57:42;99771.72;;;11.13;78.84
60465;BME280;46314;52.392;9.758;2023-12-29T04:00:12;99790.34;;;11.12;80.44
60465;BME280;46314;52.392;9.758;2023-12-29T04:02:38;99796.03;;;11.07;80.56
60465;BME280;46314;52.392;9.758;2023-12-29T04:05:07;99791.47;;;11.03;82.03
60465;BME280;46314;52.392;9.758;2023-12-29T04:07:33;99785.22;;;10.71;85.37
60465;BME280;46314;52.392;9.758;2023-12-29T04:10:01;99766.31;;;10.82;86.10
60465;BME280;46314;52.392;9.758;2023-12-29T04:12:28;99749.66;;;10.47;88.54
60465;BME280;46314;52.392;9.758;2023-12-29T04:14:54;99762.13;;;10.27;91.17
60465;BME280;46314;52.392;9.758;2023-12-29T04:17:20;99776.78;;;10.85;88.28
60465;BME280;46314;52.392;9.758;2023-12-29T04:19:47;99744.59;;;10.40;89.96
60465;BME280;46314;52.392;9.758;2023-12-29T04:22:14;99763.81;;;10.36;91.68
60465;BME280;46314;52.392;9.758;2023-12-29T04:24:40;99772.44;;;10.35;92.04
60465;BME280;46314;52.392;9.758;2023-12-29T04:27:08;99765.81;;;10.62;90.21
60465;BME280;46314;52.392;9.758;2023-12-29T04:29:35;99773.34;;;10.88;87.21
60465;BME280;46314;52.392;9.758;2023-12-29T04:32:01;99773.31;;;10.61;90.16
60465;BME280;46314;52.392;9.758;2023-12-29T04:34:28;99776.84;;;10.45;90.24
60465;BME280;46314;52.392;9.758;2023-12-29T04:36:55;99795.69;;;10.74;87.96
60465;BME280;46314;52.392;9.758;2023-12-29T04:39:21;99773.50;;;10.65;87.98
60465;BME280;46314;52.392;9.758;2023-12-29T04:41:48;99777.59;;;10.68;87.09
60465;BME280;46314;52.392;9.758;2023-12-29T04:44:15;99772.81;;;10.59;88.46
60465;BME280;46314;52.392;9.758;2023-12-29T04:46:42;99782.56;;;10.39;88.60
60465;BME280;46314;52.392;9.758;2023-12-29T04:49:08;99769.25;;;10.68;88.24
60465;BME280;46314;52.392;9.758;2023-12-29T04:51:35;99786.66;;;10.42;88.69
60465;BME280;46314;52.392;9.758;2023-12-29T04:54:02;99785.41;;;10.74;86.92
60465;BME280;46314;52.392;9.758;2023-12-29T04:56:28;99780.34;;;10.59;87.77
60465;BME280;46314;52.392;9.758;2023-12-29T04:58:55;99770.06;;;10.59;87.62
60465;BME280;46314;52.392;9.758;2023-12-29T05:01:23;99768.44;;;10.67;88.49
60465;BME280;46314;52.392;9.758;2023-12-29T05:03:49;99787.06;;;10.84;90.98
60465;BME280;46314;52.392;9.758;2023-12-29T05:06:16;99784.09;;;10.63;91.22
60465;BME280;46314;52.392;9.758;2023-12-29T05:08:43;99793.06;;;10.77;89.68
60465;BME280;46314;52.392;9.758;2023-12-29T05:11:09;99786.88;;;10.72;91.09
60465;BME280;46314;52.392;9.758;2023-12-29T05:13:35;99781.31;;;10.14;97.41
60465;BME280;46314;52.392;9.758;2023-12-29T05:16:02;99789.19;;;10.30;97.82
60465;BME280;46314;52.392;9.758;2023-12-29T05:18:30;99787.16;;;10.13;100.00
60465;BME280;46314;52.392;9.758;2023-12-29T05:20:57;99797.75;;;10.11;100.00
60465;BME280;46314;52.392;9.758;2023-12-29T05:23:23;99796.78;;;10.47;100.00
60465;BME280;46314;52.392;9.758;2023-12-29T05:25:49;99797.66;;;10.73;97.39
60465;BME280;46314;52.392;9.758;2023-12-29T05:28:17;99789.59;;;10.46;100.00
60465;BME280;46314;52.392;9.758;2023-12-29T05:30:43;99799.53;;;10.38;100.00
60465;BME280;46314;52.392;9.758;2023-12-29T05:33:10;99792.84;;;10.48;100.00
60465;BME280;46314;52.392;9.758;2023-12-29T05:35:38;99788.03;;;10.79;98.58
60465;BME280;46314;52.392;9.758;2023-12-29T05:38:04;99780.19;;;10.90;96.50
60465;BME280;46314;52.392;9.758;2023-12-29T05:40:31;99779.84;;;10.74;99.43
60465;BME280;46314;52.392;9.758;2023-12-29T05:42:57;99786.25;;;10.92;98.67
60465;BME280;46314;52.392;9.758;2023-12-29T05:45:25;99783.13;;;10.59;100.00
60465;BME280;46314;52.392;9.758;2023-12-29T05:47:52;99788.75;;;10.36;100.00
60465;BME280;46314;52.392;9.758;2023-12-29T05:50:18;99780.00;;;10.69;100.00
60465;BME280;46314;52.392;9.758;2023-12-29T05:52:46;99779.66;;;10.62;100.00
60465;BME280;46314;52.392;9.758;2023-12-29T05:55:13;99779.06;;;10.91;100.00
60465;BME280;46314;52.392;9.758;2023-12-29T05:57:39;99777.09;;;11.01;99.18
60465;BME280;46314;52.392;9.758;2023-12-29T06:00:07;99782.31;;;10.76;100.00
60465;BME280;46314;52.392;9.758;2023-12-29T06:02:33;99780.84;;;10.70;99.76
60465;BME280;46314;52.392;9.758;2023-12-29T06:05:00;99785.25;;;10.79;100.00
60465;BME280;46314;52.392;9.758;2023-12-29T06:07:27;99791.63;;;10.80;98.05
60465;BME280;46314;52.392;9.758;2023-12-29T06:09:54;99785.06;;;10.67;99.06
60465;BME280;46314;52.392;9.758;2023-12-29T06:12:21;99784.38;;;10.44;100.00
60465;BME280;46314;52.392;9.758;2023-12-29T06:14:47;99790.00;;;10.30;100.00
60465;BME280;46314;52.392;9.758;2023-12-29T06:17:14;99795.00;;;10.59;100.00
60465;BME280;46314;52.392;9.758;2023-12-29T06:19:40;99804.69;;;10.88;98.60
60465;BME280;46314;52.392;9.758;2023-12-29T06:22:07;99802.56;;;10.76;100.00
60465;BME280;46314;52.392;9.758;2023-12-29T06:24:33;99792.75;;;10.79;100.00
60465;BME280;46314;52.392;9.758;2023-12-29T06:27:01;99808.94;;;10.94;100.00
60465;BME280;46314;52.392;9.758;2023-12-29T06:29:28;99803.56;;;10.32;100.00
60465;BME280;46314;52.392;9.758;2023-12-29T06:31:54;99806.78;;;10.83;100.00
60465;BME280;46314;52.392;9.758;2023-12-29T06:34:21;99802.72;;;10.97;100.00
60465;BME280;46314;52.392;9.758;2023-12-29T06:36:47;99788.16;;;10.74;100.00
60465;BME280;46314;52.392;9.758;2023-12-29T06:39:14;99800.53;;;10.51;100.00
60465;BME280;46314;52.392;9.758;2023-12-29T06:41:40;99801.47;;;9.97;100.00
60465;BME280;46314;52.392;9.758;2023-12-29T06:44:08;99798.47;;;10.74;100.00
60465;BME280;46314;52.392;9.758;2023-12-29T06:46:36;99792.28;;;10.77;100.00
60465;BME280;46314;52.392;9.758;2023-12-29T06:49:03;99788.69;;;10.76;100.00
60465;BME280;46314;52.392;9.758;2023-12-29T06:51:30;99790.13;;;10.74;100.00
60465;BME280;46314;52.392;9.758;2023-12-29T06:53:56;99797.69;;;10.91;100.00
60465;BME280;46314;52.392;9.758;2023-12-29T06:56:22;99796.38;;;10.97;100.00
60465;BME280;46314;52.392;9.758;2023-12-29T06:58:49;99809.91;;;11.07;100.00
60465;BME280;46314;52.392;9.758;2023-12-29T07:01:16;99789.34;;;10.91;100.00
60465;BME280;46314;52.392;9.758;2023-12-29T07:03:43;99795.06;;;11.03;100.00
60465;BME280;46314;52.392;9.758;2023-12-29T07:06:11;99812.66;;;10.81;100.00
60465;BME280;46314;52.392;9.758;2023-12-29T07:08:37;99805.97;;;10.73;99.35
60465;BME280;46314;52.392;9.758;2023-12-29T07:11:04;99811.28;;;10.44;99.61
60465;BME280;46314;52.392;9.758;2023-12-29T07:13:30;99803.41;;;10.94;96.04
60465;BME280;46314;52.392;9.758;2023-12-29T07:15:57;99804.03;;;10.83;97.62
60465;BME280;46314;52.392;9.758;2023-12-29T07:18:24;99820.16;;;10.72;97.49
60465;BME280;46314;52.392;9.758;2023-12-29T07:20:51;99804.81;;;10.74;98.39
60465;BME280;46314;52.392;9.758;2023-12-29T07:23:17;99827.53;;;11.03;95.21
60465;BME280;46314;52.392;9.758;2023-12-29T07:25:44;99806.94;;;10.69;96.84
60465;BME280;46314;52.392;9.758;2023-12-29T07:28:10;99806.47;;;10.75;96.08
60465;BME280;46314;52.392;9.758;2023-12-29T07:30:37;99808.78;;;10.91;94.67
60465;BME280;46314;52.392;9.758;2023-12-29T07:33:04;99808.19;;;10.45;98.05
60465;BME280;46314;52.392;9.758;2023-12-29T07:35:32;99814.50;;;11.03;94.15
60465;BME280;46314;52.392;9.758;2023-12-29T07:37:59;99809.75;;;11.12;91.59
60465;BME280;46314;52.392;9.758;2023-12-29T07:40:26;99811.03;;;10.71;93.54
60465;BME280;46314;52.392;9.758;2023-12-29T07:42:52;99808.47;;;10.92;91.41
60465;BME280;46314;52.392;9.758;2023-12-29T07:45:19;99820.53;;;10.96;90.96
60465;BME280;46314;52.392;9.758;2023-12-29T07:47:46;99825.72;;;10.72;90.92
60465;BME280;46314;52.392;9.758;2023-12-29T07:50:13;99826.06;;;10.88;91.19
60465;BME280;46314;52.392;9.758;2023-12-29T07:52:42;99835.13;;;10.62;92.35
60465;BME280;46314;52.392;9.758;2023-12-29T07:55:08;99829.84;;;11.09;89.20
60465;BME280;46314;52.392;9.758;2023-12-29T07:57:35;99840.31;;;11.39;86.56
60465;BME280;46314;52.392;9.758;2023-12-29T08:00:01;99835.41;;;11.27;86.08
60465;BME280;46314;52.392;9.758;2023-12-29T08:02:28;99842.75;;;11.23;85.76
60465;BME280;46314;52.392;9.758;2023-12-29T08:04:54;99842.06;;;11.43;85.30
60465;BME280;46314;52.392;9.758;2023-12-29T08:07:21;99851.25;;;11.35;85.91
60465;BME280;46314;52.392;9.758;2023-12-29T08:09:49;99851.22;;;11.09;86.17
60465;BME280;46314;52.392;9.758;2023-12-29T08:12:16;99859.25;;;11.19;85.41
60465;BME280;46314;52.392;9.758;2023-12-29T08:14:42;99854.97;;;11.04;86.93
60465;BME280;46314;52.392;9.758;2023-12-29T08:17:09;99863.78;;;11.24;84.95
60465;BME280;46314;52.392;9.758;2023-12-29T08:19:35;99862.03;;;11.36;84.76
60465;BME280;46314;52.392;9.758;2023-12-29T08:22:02;99851.38;;;11.04;86.44
60465;BME280;46314;52.392;9.758;2023-12-29T08:24:28;99866.75;;;11.45;84.81
60465;BME280;46314;52.392;9.758;2023-12-29T08:26:56;99850.59;;;11.38;83.24
60465;BME280;46314;52.392;9.758;2023-12-29T08:29:23;99868.94;;;10.82;85.45
60465;BME280;46314;52.392;9.758;2023-12-29T08:31:50;99869.03;;;11.43;83.93
60465;BME280;46314;52.392;9.758;2023-12-29T08:34:17;99875.59;;;11.47;82.41
60465;BME280;46314;52.392;9.758;2023-12-29T08:36:45;99879.31;;;11.25;84.14
60465;BME280;46314;52.392;9.758;2023-12-29T08:39:12;99861.03;;;11.24;82.98
60465;BME280;46314;52.392;9.758;2023-12-29T08:41:38;99860.03;;;11.72;81.25
60465;BME280;46314;52.392;9.758;2023-12-29T08:44:06;99857.75;;;11.74;79.87
60465;BME280;46314;52.392;9.758;2023-12-29T08:46:33;99849.91;;;11.24;83.14
60465;BME280;46314;52.392;9.758;2023-12-29T08:48:59;99852.38;;;11.34;81.29
60465;BME280;46314;52.392;9.758;2023-12-29T08:51:26;99854.66;;;11.49;79.25
60465;BME280;46314;52.392;9.758;2023-12-29T08:53:52;99847.44;;;11.83;79.09
60465;BME280;46314;52.392;9.758;2023-12-29T08:56:19;99836.81;;;11.77;79.62
60465;BME280;46314;52.392;9.758;2023-12-29T08:58:45;99843.72;;;11.62;79.71
60465;BME280;46314;52.392;9.758;2023-12-29T09:01:13;99831.09;;;11.90;78.54
60465;BME280;46314;52.392;9.758;2023-12-29T09:03:39;99823.63;;;11.47;78.08
60465;BME280;46314;52.392;9.758;2023-12-29T09:06:06;99830.16;;;11.16;81.10
60465;BME280;46314;52.392;9.758;2023-12-29T09:08:32;99839.81;;;11.28;78.97
60465;BME280;46314;52.392;9.758;2023-12-29T09:10:59;99834.75;;;11.39;79.50
60465;BME280;46314;52.392;9.758;2023-12-29T09:13:25;99834.41;;;11.66;77.70
60465;BME280;46314;52.392;9.758;2023-12-29T09:15:52;99826.41;;;11.39;79.04
60465;BME280;46314;52.392;9.758;2023-12-29T09:18:20;99832.25;;;11.72;77.00
60465;BME280;46314;52.392;9.758;2023-12-29T09:20:47;99846.50;;;11.53;78.31
60465;BME280;46314;52.392;9.758;2023-12-29T09:23:14;99846.19;;;11.46;78.63
60465;BME280;46314;52.392;9.758;2023-12-29T09:25:40;99849.53;;;12.04;76.67
60465;BME280;46314;52.392;9.758;2023-12-29T09:28:07;99859.84;;;12.03;75.64
60465;BME280;46314;52.392;9.758;2023-12-29T09:30:33;99848.31;;;11.40;78.53
60465;BME280;46314;52.392;9.758;2023-12-29T09:33:00;99855.44;;;11.76;78.10
60465;BME280;46314;52.392;9.758;2023-12-29T09:35:28;99859.56;;;11.44;79.17
60465;BME280;46314;52.392;9.758;2023-12-29T09:37:54;99840.13;;;11.52;80.18
60465;BME280;46314;52.392;9.758;2023-12-29T09:40:21;99857.25;;;11.11;81.71
60465;BME280;46314;52.392;9.758;2023-12-29T09:42:48;99859.22;;;11.10;82.83
60465;BME280;46314;52.392;9.758;2023-12-29T09:45:20;99873.94;;;11.54;80.66
60465;BME280;46314;52.392;9.758;2023-12-29T09:47:51;99862.78;;;10.85;85.48
60465;BME280;46314;52.392;9.758;2023-12-29T09:50:18;99863.22;;;10.69;89.26
60465;BME280;46314;52.392;9.758;2023-12-29T09:52:48;99857.06;;;10.90;90.20
60465;BME280;46314;52.392;9.758;2023-12-29T09:55:15;99866.88;;;10.96;92.12
60465;BME280;46314;52.392;9.758;2023-12-29T09:57:43;99875.06;;;11.27;91.08
60465;BME280;46314;52.392;9.758;2023-12-29T10:00:11;99901.34;;;11.04;95.37
60465;BME280;46314;52.392;9.758;2023-12-29T10:02:38;99879.91;;;10.38;100.00
60465;BME280;46314;52.392;9.758;2023-12-29T10:05:05;99867.00;;;10.73;100.00
60465;BME280;46314;52.392;9.758;2023-12-29T10:07:35;99876.78;;;10.79;100.00
60465;BME280;46314;52.392;9.758;2023-12-29T10:10:04;99856.91;;;10.95;100.00
60465;BME280;46314;52.392;9.758;2023-12-29T10:12:32;99858.91;;;11.03;100.00
60465;BME280;46314;52.392;9.758;2023-12-29T10:15:05;99865.59;;;10.53;100.00
60465;BME280;46314;52.392;9.758;2023-12-29T10:17:39;99867.66;;;10.79;100.00
60465;BME280;46314;52.392;9.758;2023-12-29T10:20:12;99870.97;;;10.50;100.00
60465;BME280;46314;52.392;9.758;2023-12-29T10:22:47;99857.84;;;10.82;100.00
60465;BME280;46314;52.392;9.758;2023-12-29T10:25:16;99858.91;;;10.46;100.00
60465;BME280;46314;52.392;9.758;2023-12-29T10:27:43;99860.13;;;10.71;100.00
60465;BME280;46314;52.392;9.758;2023-12-29T10:30:11;99861.19;;;11.01;100.00
60465;BME280;46314;52.392;9.758;2023-12-29T10:32:53;99878.25;;;10.77;100.00
60465;BME280;46314;52.392;9.758;2023-12-29T10:35:20;99882.44;;;10.66;100.00
60465;BME280;46314;52.392;9.758;2023-12-29T10:37:46;99878.91;;;10.74;100.00
60465;BME280;46314;52.392;9.758;2023-12-29T10:40:18;99865.25;;;10.46;100.00
60465;BME280;46314;52.392;9.758;2023-12-29T10:42:52;99858.06;;;10.36;100.00
60465;BME280;46314;52.392;9.758;2023-12-29T10:45:19;99849.00;;;10.22;100.00
60465;BME280;46314;52.392;9.758;2023-12-29T10:47:47;99846.69;;;10.47;100.00
60465;BME280;46314;52.392;9.758;2023-12-29T10:50:14;99850.56;;;10.37;100.00
60465;BME280;46314;52.392;9.758;2023-12-29T10:52:40;99843.59;;;10.57;100.00
60465;BME280;46314;52.392;9.758;2023-12-29T10:55:08;99847.63;;;10.11;100.00
60465;BME280;46314;52.392;9.758;2023-12-29T10:57:37;99828.94;;;10.56;100.00
60465;BME280;46314;52.392;9.758;2023-12-29T11:00:04;99822.88;;;10.46;100.00
60465;BME280;46314;52.392;9.758;2023-12-29T11:02:31;99820.41;;;10.44;100.00
60465;BME280;46314;52.392;9.758;2023-12-29T11:05:05;99806.47;;;10.27;100.00
60465;BME280;46314;52.392;9.758;2023-12-29T11:07:33;99809.41;;;10.88;100.00
60465;BME280;46314;52.392;9.758;2023-12-29T11:10:02;99809.53;;;10.65;100.00
60465;BME280;46314;52.392;9.758;2023-12-29T11:12:30;99802.84;;;10.57;100.00
60465;BME280;46314;52.392;9.758;2023-12-29T11:14:59;99797.47;;;10.61;100.00
60465;BME280;46314;52.392;9.758;2023-12-29T11:17:29;99802.66;;;10.45;100.00
60465;BME280;46314;52.392;9.758;2023-12-29T11:19:58;99800.47;;;10.33;100.00
60465;BME280;46314;52.392;9.758;2023-12-29T11:22:27;99791.47;;;10.28;100.00
60465;BME280;46314;52.392;9.758;2023-12-29T11:24:54;99807.03;;;10.46;100.00
60465;BME280;46314;52.392;9.758;2023-12-29T11:27:21;99801.31;;;10.42;100.00
60465;BME280;46314;52.392;9.758;2023-12-29T11:29:48;99794.38;;;10.63;100.00
60465;BME280;46314;52.392;9.758;2023-12-29T11:32:18;99799.28;;;10.83;100.00
60465;BME280;46314;52.392;9.758;2023-12-29T11:34:50;99785.38;;;10.66;100.00
60465;BME280;46314;52.392;9.758;2023-12-29T11:37:23;99786.25;;;11.01;100.00
60465;BME280;46314;52.392;9.758;2023-12-29T11:39:59;99799.22;;;10.57;100.00
60465;BME280;46314;52.392;9.758;2023-12-29T11:42:31;99787.00;;;10.49;100.00
60465;BME280;46314;52.392;9.758;2023-12-29T11:45:25;99798.00;;;10.80;100.00
60465;BME280;46314;52.392;9.758;2023-12-29T11:47:54;99794.69;;;10.61;100.00
60465;BME280;46314;52.392;9.758;2023-12-29T11:50:27;99785.22;;;10.71;100.00
60465;BME280;46314;52.392;9.758;2023-12-29T11:52:53;99790.97;;;10.92;100.00
60465;BME280;46314;52.392;9.758;2023-12-29T11:55:20;99799.94;;;10.97;100.00
60465;BME280;46314;52.392;9.758;2023-12-29T11:57:47;99805.84;;;11.13;100.00
60465;BME280;46314;52.392;9.758;2023-12-29T12:00:14;99791.78;;;11.18;100.00
60465;BME280;46314;52.392;9.758;2023-12-29T12:02:41;99810.09;;;11.28;99.13
60465;BME280;46314;52.392;9.758;2023-12-29T12:05:10;99783.91;;;11.55;97.76
60465;BME280;46314;52.392;9.758;2023-12-29T12:07:57;99788.03;;;11.14;100.00
60465;BME280;46314;52.392;9.758;2023-12-29T12:10:31;99780.19;;;11.43;96.16
60465;BME280;46314;52.392;9.758;2023-12-29T12:12:59;99777.25;;;10.95;98.40
60465;BME280;46314;52.392;9.758;2023-12-29T12:15:32;99770.25;;;11.15;98.68
60465;BME280;46314;52.392;9.758;2023-12-29T12:18:00;99779.50;;;11.63;95.95
60465;BME280;46314;52.392;9.758;2023-12-29T12:20:28;99774.47;;;11.39;94.93
60465;BME280;46314;52.392;9.758;2023-12-29T12:22:57;99767.97;;;11.17;96.47
60465;BME280;46314;52.392;9.758;2023-12-29T12:25:25;99791.13;;;11.30;95.19
60465;BME280;46314;52.392;9.758;2023-12-29T12:27:52;99788.50;;;10.90;97.06
60465;BME280;46314;52.392;9.758;2023-12-29T12:30:19;99785.41;;;11.35;95.37
60465;BME280;46314;52.392;9.758;2023-12-29T12:32:47;99784.41;;;11.58;92.16
60465;BME280;46314;52.392;9.758;2023-12-29T12:35:23;99795.34;;;11.63;92.77
60465;BME280;46314;52.392;9.758;2023-12-29T12:38:09;99783.28;;;11.41;92.68
60465;BME280;46314;52.392;9.758;2023-12-29T12:40:35;99777.66;;;11.76;92.46
60465;BME280;46314;52.392;9.758;2023-12-29T12:43:02;99780.34;;;11.20;97.09
60465;BME280;46314;52.392;9.758;2023-12-29T12:45:33;99784.31;;;11.19;98.59
60465;BME280;46314;52.392;9.758;2023-12-29T12:48:02;99798.00;;;11.15;100.00
60465;BME280;46314;52.392;9.758;2023-12-29T12:50:30;99792.78;;;11.14;99.92
60465;BME280;46314;52.392;9.758;2023-12-29T12:52:57;99798.13;;;11.63;97.88
60465;BME280;46314;52.392;9.758;2023-12-29T12:55:25;99795.56;;;11.23;99.84
60465;BME280;46314;52.392;9.758;2023-12-29T12:57:53;99798.97;;;11.37;98.69
60465;BME280;46314;52.392;9.758;2023-12-29T13:00:20;99793.25;;;11.51;97.83
60465;BME280;46314;52.392;9.758;2023-12-29T13:02:47;99797.91;;;11.77;96.01